createdAt,value
2022-10-05T00:01:35.532Z,57.67
2022-10-05T00:04:33.710Z,57.70
2022-10-05T00:07:17.755Z,57.38
2022-10-05T00:09:52.985Z,57.69
2022-10-05T00:12:27.528Z,57.65
2022-10-05T00:15:03.421Z,57.68
2022-10-05T00:17:33.681Z,57.49
2022-10-05T00:20:01.358Z,57.09
2022-10-05T00:22:34.999Z,57.06
2022-10-05T00:25:17.728Z,57.45
2022-10-05T00:27:57.530Z,57.35
2022-10-05T00:30:33.367Z,57.69
2022-10-05T00:33:01.163Z,57.55
2022-10-05T00:35:37.129Z,57.53
2022-10-05T00:38:06.441Z,57.72
2022-10-05T00:40:57.814Z,57.49
2022-10-05T00:44:04.005Z,57.72
2022-10-05T00:46:44.099Z,57.81
2022-10-05T00:49:37.154Z,57.77
2022-10-05T00:52:24.157Z,57.64
2022-10-05T00:54:59.865Z,57.64
2022-10-05T00:57:51.404Z,57.61
2022-10-05T01:00:25.604Z,57.35
2022-10-05T01:03:31.955Z,57.83
2022-10-05T01:06:32.018Z,57.49
2022-10-05T01:09:14.641Z,57.79
2022-10-05T01:11:58.374Z,57.85
2022-10-05T01:14:54.440Z,57.67
2022-10-05T01:17:34.149Z,57.85
2022-10-05T01:20:23.016Z,57.75
2022-10-05T01:23:29.470Z,57.75
2022-10-05T01:26:09.058Z,57.96
2022-10-05T01:28:51.025Z,57.51
2022-10-05T01:31:36.107Z,57.91
2022-10-05T01:34:20.604Z,57.68
2022-10-05T01:37:08.124Z,57.80
2022-10-05T01:40:13.653Z,57.66
2022-10-05T01:43:04.114Z,57.70
2022-10-05T01:46:05.483Z,57.51
2022-10-05T01:48:54.089Z,57.66
2022-10-05T01:51:56.035Z,57.92
2022-10-05T01:54:27.439Z,57.58
2022-10-05T01:57:22.231Z,57.94
2022-10-05T02:00:11.541Z,57.87
2022-10-05T02:03:00.568Z,57.99
2022-10-05T02:05:48.859Z,57.49
2022-10-05T02:08:35.326Z,57.90
2022-10-05T02:11:27.311Z,57.63
2022-10-05T02:14:38.185Z,57.82
2022-10-05T02:17:32.401Z,57.75
2022-10-05T02:20:08.555Z,57.92
2022-10-05T02:22:56.433Z,58.04
2022-10-05T02:25:39.714Z,57.65
2022-10-05T02:28:52.312Z,58.03
2022-10-05T02:31:47.559Z,57.58
2022-10-05T02:34:43.800Z,57.67
2022-10-05T02:37:36.732Z,57.32
2022-10-05T02:40:17.626Z,57.85
2022-10-05T02:42:55.268Z,58.01
2022-10-05T02:45:52.509Z,58.04
2022-10-05T02:48:57.413Z,57.95
2022-10-05T02:51:45.952Z,57.62
2022-10-05T02:55:09.997Z,57.66
2022-10-05T02:58:00.396Z,57.64
2022-10-05T03:00:35.391Z,57.68
2022-10-05T03:03:20.017Z,57.73
2022-10-05T03:06:27.600Z,57.89
2022-10-05T03:09:09.561Z,57.56
2022-10-05T03:11:50.165Z,58.04
2022-10-05T03:14:57.672Z,58.05
2022-10-05T03:17:37.602Z,57.96
2022-10-05T03:20:54.037Z,57.62
2022-10-05T03:23:46.379Z,57.91
2022-10-05T03:26:41.914Z,58.02
2022-10-05T03:29:50.505Z,57.94
2022-10-05T03:32:21.689Z,57.73
2022-10-05T03:35:14.395Z,57.87
2022-10-05T03:38:32.196Z,58.01
2022-10-05T03:41:24.950Z,57.90
2022-10-05T03:44:14.327Z,57.71
2022-10-05T03:47:21.591Z,58.11
2022-10-05T03:50:15.279Z,58.11
2022-10-05T03:53:30.167Z,58.08
2022-10-05T03:56:27.339Z,57.97
2022-10-05T04:02:14.019Z,57.94
2022-10-05T04:05:19.009Z,57.82
2022-10-05T04:08:06.010Z,57.95
2022-10-05T04:10:48.357Z,57.76
2022-10-05T04:13:44.013Z,57.82
2022-10-05T04:16:14.174Z,57.82
2022-10-05T04:19:04.467Z,58.08
2022-10-05T04:25:15.993Z,58.09
2022-10-05T04:28:32.346Z,58.32
2022-10-05T04:31:10.192Z,58.22
2022-10-05T04:33:37.032Z,58.29
2022-10-05T04:36:31.942Z,58.03
2022-10-05T04:39:48.168Z,57.84
2022-10-05T04:42:37.854Z,58.43
2022-10-05T04:45:25.161Z,58.08
2022-10-05T04:48:11.257Z,58.03
2022-10-05T04:51:19.567Z,57.90
2022-10-05T04:53:53.332Z,58.08
2022-10-05T04:56:23.731Z,58.14
2022-10-05T04:59:32.845Z,58.01
2022-10-05T05:02:18.216Z,58.11
2022-10-05T05:05:08.608Z,58.30
2022-10-05T05:07:45.825Z,58.24
2022-10-05T05:10:29.761Z,58.46
2022-10-05T05:13:28.101Z,58.20
2022-10-05T05:16:23.166Z,58.24
2022-10-05T05:19:18.341Z,58.12
2022-10-05T05:22:03.008Z,58.25
2022-10-05T05:24:35.738Z,58.31
2022-10-05T05:27:42.858Z,58.27
2022-10-05T05:30:18.668Z,58.43
2022-10-05T05:33:07.185Z,58.44
2022-10-05T05:36:06.492Z,58.07
2022-10-05T05:39:05.467Z,58.06
2022-10-05T05:42:01.789Z,58.08
2022-10-05T05:44:42.751Z,58.19
2022-10-05T05:47:24.279Z,58.32
2022-10-05T05:50:07.268Z,58.43
2022-10-05T05:52:49.597Z,58.25
2022-10-05T05:55:30.193Z,58.46
2022-10-05T05:58:04.013Z,58.32
2022-10-05T06:00:37.673Z,58.40
2022-10-05T06:03:13.184Z,58.13
2022-10-05T06:05:49.817Z,58.20
2022-10-05T06:08:24.992Z,58.33
2022-10-05T06:11:05.728Z,58.51
2022-10-05T06:13:40.215Z,57.91
2022-10-05T06:16:18.789Z,58.46
2022-10-05T06:18:52.058Z,58.38
2022-10-05T06:21:27.709Z,58.56
2022-10-05T06:24:05.081Z,58.71
2022-10-05T06:27:27.283Z,58.45
2022-10-05T06:30:05.245Z,58.23
2022-10-05T06:32:52.465Z,58.59
2022-10-05T06:35:27.785Z,58.30
2022-10-05T06:38:07.852Z,58.33
2022-10-05T06:40:59.600Z,58.19
2022-10-05T06:43:48.203Z,58.57
2022-10-05T06:46:59.503Z,58.14
2022-10-05T06:49:35.517Z,58.37
2022-10-05T06:52:10.886Z,58.31
2022-10-05T06:54:56.416Z,58.56
2022-10-05T06:57:38.619Z,58.60
2022-10-05T07:00:17.423Z,58.31
2022-10-05T07:02:53.780Z,58.39
2022-10-05T07:05:45.255Z,58.62
2022-10-05T07:08:20.400Z,58.32
2022-10-05T07:10:47.251Z,58.27
2022-10-05T07:13:48.858Z,58.39
2022-10-05T07:16:33.697Z,58.33
2022-10-05T07:19:22.081Z,58.68
2022-10-05T07:22:13.978Z,58.47
2022-10-05T07:24:59.498Z,58.56
2022-10-05T07:27:32.293Z,58.63
2022-10-05T07:30:01.474Z,58.35
2022-10-05T07:32:36.734Z,58.27
2022-10-05T07:35:36.754Z,58.40
2022-10-05T07:38:32.691Z,58.45
2022-10-05T07:41:07.381Z,58.26
2022-10-05T07:44:03.776Z,58.69
2022-10-05T07:46:49.405Z,58.66
2022-10-05T07:49:45.436Z,58.51
2022-10-05T07:52:31.067Z,58.46
2022-10-05T07:55:19.330Z,58.61
2022-10-05T07:58:21.120Z,58.64
2022-10-05T08:01:02.358Z,58.64
2022-10-05T08:03:39.831Z,58.78
2022-10-05T08:06:11.688Z,58.58
2022-10-05T08:08:51.598Z,58.64
2022-10-05T08:11:25.890Z,58.45
2022-10-05T08:14:24.880Z,58.51
2022-10-05T08:16:55.791Z,58.69
2022-10-05T08:19:32.170Z,58.67
2022-10-05T08:22:06.274Z,58.52
2022-10-05T08:24:52.385Z,58.57
2022-10-05T08:27:27.782Z,58.63
2022-10-05T08:30:04.571Z,58.41
2022-10-05T08:32:43.807Z,58.65
2022-10-05T08:35:31.030Z,58.32
2022-10-05T08:37:58.150Z,58.53
2022-10-05T08:40:27.979Z,58.21
2022-10-05T08:42:57.807Z,58.59
2022-10-05T08:45:30.560Z,58.35
2022-10-05T08:48:25.880Z,58.35
2022-10-05T08:51:33.439Z,58.60
2022-10-05T08:54:06.454Z,58.04
2022-10-05T08:57:01.312Z,58.73
2022-10-05T08:59:58.841Z,58.64
2022-10-05T09:02:55.738Z,58.71
2022-10-05T09:05:28.611Z,58.57
2022-10-05T09:08:14.003Z,58.32
2022-10-05T09:10:59.310Z,58.69
2022-10-05T09:13:56.810Z,58.34
2022-10-05T09:16:48.095Z,58.67
2022-10-05T09:19:30.078Z,58.40
2022-10-05T09:22:35.188Z,58.63
2022-10-05T09:25:42.761Z,57.96
2022-10-05T09:28:36.573Z,58.72
2022-10-05T09:31:22.543Z,58.60
2022-10-05T09:34:37.193Z,58.37
2022-10-05T09:37:33.543Z,58.60
2022-10-05T09:40:33.038Z,58.51
2022-10-05T09:43:11.958Z,58.02
2022-10-05T09:46:03.663Z,58.15
2022-10-05T09:48:30.388Z,58.48
2022-10-05T09:51:15.386Z,58.25
2022-10-05T09:54:03.506Z,58.56
2022-10-05T09:56:44.014Z,58.32
2022-10-05T09:59:44.911Z,58.46
2022-10-05T10:02:43.969Z,58.22
2022-10-05T10:05:39.369Z,58.13
2022-10-05T10:08:15.427Z,58.47
2022-10-05T10:11:08.457Z,58.05
2022-10-05T10:13:55.780Z,58.05
2022-10-05T10:16:43.978Z,58.25
2022-10-05T10:19:47.918Z,58.46
2022-10-05T10:22:17.662Z,58.49
2022-10-05T10:25:19.247Z,58.97
2022-10-05T10:28:13.320Z,58.17
2022-10-05T10:30:51.908Z,58.07
2022-10-05T10:33:49.764Z,57.88
2022-10-05T10:36:28.567Z,57.87
2022-10-05T10:39:10.212Z,57.91
2022-10-05T10:41:46.000Z,57.87
2022-10-05T10:44:37.509Z,58.01
2022-10-05T10:47:47.279Z,58.38
2022-10-05T10:50:40.681Z,58.24
2022-10-05T10:53:29.749Z,58.19
2022-10-05T10:56:20.724Z,57.70
2022-10-05T10:59:08.766Z,58.21
2022-10-05T11:01:51.142Z,57.89
2022-10-05T11:04:40.173Z,58.13
2022-10-05T11:07:19.074Z,58.14
2022-10-05T11:09:51.808Z,57.91
2022-10-05T11:13:03.701Z,57.79
2022-10-05T11:15:30.511Z,58.03
2022-10-05T11:18:35.989Z,57.30
2022-10-05T11:21:21.642Z,57.80
2022-10-05T11:24:16.078Z,57.82
2022-10-05T11:27:26.995Z,57.81
2022-10-05T11:30:03.350Z,57.92
2022-10-05T11:33:11.342Z,57.42
2022-10-05T11:35:44.298Z,57.68
2022-10-05T11:38:57.063Z,57.67
2022-10-05T11:42:05.142Z,57.31
2022-10-05T11:45:15.851Z,57.51
2022-10-05T11:48:00.427Z,57.75
2022-10-05T11:51:08.678Z,57.38
2022-10-05T11:53:53.172Z,57.55
2022-10-05T11:56:42.299Z,57.86
2022-10-05T11:59:19.604Z,57.23
2022-10-05T12:02:24.049Z,57.76
2022-10-05T12:05:11.215Z,57.63
2022-10-05T12:07:46.846Z,57.69
2022-10-05T12:10:27.665Z,57.79
2022-10-05T12:13:19.448Z,57.15
2022-10-05T12:15:52.800Z,57.45
2022-10-05T12:18:25.697Z,57.11
2022-10-05T12:21:04.627Z,57.46
2022-10-05T12:23:43.215Z,57.69
2022-10-05T12:26:27.720Z,57.64
2022-10-05T12:29:02.073Z,57.40
2022-10-05T12:31:45.963Z,57.45
2022-10-05T12:34:12.941Z,57.24
2022-10-05T12:37:03.628Z,57.07
2022-10-05T12:39:54.532Z,57.56
2022-10-05T12:42:51.821Z,56.98
2022-10-05T12:46:03.837Z,57.16
2022-10-05T12:48:49.195Z,56.91
2022-10-05T12:51:28.191Z,56.74
2022-10-05T12:54:03.309Z,57.13
2022-10-05T12:56:47.749Z,56.87
2022-10-05T12:59:20.684Z,57.13
2022-10-05T13:01:52.301Z,57.32
2022-10-05T13:04:43.550Z,56.49
2022-10-05T13:07:48.712Z,57.59
2022-10-05T13:10:24.747Z,57.38
2022-10-05T13:13:07.403Z,56.80
2022-10-05T13:16:00.198Z,57.43
2022-10-05T13:18:40.971Z,56.86
2022-10-05T13:21:21.928Z,56.61
2022-10-05T13:24:00.453Z,56.38
2022-10-05T13:26:37.151Z,57.20
2022-10-05T13:29:25.953Z,56.86
2022-10-05T13:32:00.223Z,56.82
2022-10-05T13:34:37.232Z,56.99
2022-10-05T13:37:20.054Z,57.08
2022-10-05T13:39:59.549Z,56.57
2022-10-05T13:42:41.742Z,56.47
2022-10-05T13:45:24.614Z,56.62
2022-10-05T13:48:06.818Z,57.17
2022-10-05T13:50:42.811Z,56.71
2022-10-05T13:53:18.544Z,56.87
2022-10-05T13:55:47.682Z,56.05
2022-10-05T13:58:54.252Z,56.50
2022-10-05T14:01:34.807Z,56.17
2022-10-05T14:04:20.609Z,56.12
2022-10-05T14:06:48.787Z,56.58
2022-10-05T14:09:25.480Z,56.65
2022-10-05T14:12:12.429Z,56.40
2022-10-05T14:14:51.190Z,56.63
2022-10-05T14:17:33.383Z,55.85
2022-10-05T14:20:13.827Z,56.09
2022-10-05T14:22:42.132Z,56.24
2022-10-05T14:25:09.174Z,56.05
2022-10-05T14:27:50.704Z,56.64
2022-10-05T14:30:24.330Z,56.02
2022-10-05T14:32:56.373Z,56.00
2022-10-05T14:35:25.848Z,56.21
2022-10-05T14:38:00.694Z,56.36
2022-10-05T14:40:37.972Z,56.06
2022-10-05T14:43:31.259Z,55.93
2022-10-05T14:46:14.754Z,56.37
2022-10-05T14:48:44.090Z,56.31
2022-10-05T14:51:24.053Z,55.75
2022-10-05T14:54:02.043Z,56.24
2022-10-05T14:57:04.507Z,56.59
2022-10-05T14:59:43.457Z,56.02
2022-10-05T15:02:33.717Z,56.18
2022-10-05T15:05:15.323Z,55.48
2022-10-05T15:07:57.235Z,55.81
2022-10-05T15:10:40.567Z,56.13
2022-10-05T15:13:11.843Z,56.45
2022-10-05T15:15:44.749Z,55.55
2022-10-05T15:18:42.262Z,56.11
2022-10-05T15:21:24.084Z,56.15
2022-10-05T15:24:00.211Z,56.14
2022-10-05T15:26:45.866Z,56.31
2022-10-05T15:29:47.330Z,56.35
2022-10-05T15:32:21.896Z,55.28
2022-10-05T15:35:29.621Z,55.38
2022-10-05T15:37:59.812Z,55.55
2022-10-05T15:40:39.741Z,55.78
2022-10-05T15:43:14.009Z,55.73
2022-10-05T15:45:54.687Z,55.52
2022-10-05T15:48:29.129Z,55.85
2022-10-05T15:51:30.083Z,55.29
2022-10-05T15:54:19.883Z,56.12
2022-10-05T15:57:16.315Z,55.55
2022-10-05T16:00:11.489Z,55.73
2022-10-05T16:02:46.177Z,55.85
2022-10-05T16:05:56.683Z,55.37
2022-10-05T16:09:01.941Z,55.47
2022-10-05T16:11:52.684Z,55.98
2022-10-05T16:14:28.476Z,55.27
2022-10-05T16:17:05.112Z,55.92
2022-10-05T16:19:45.495Z,55.79
2022-10-05T16:22:28.227Z,55.75
2022-10-05T16:25:18.382Z,55.12
2022-10-05T16:28:05.641Z,56.00
2022-10-05T16:30:55.207Z,55.51
2022-10-05T16:33:29.238Z,55.53
2022-10-05T16:36:31.845Z,55.35
2022-10-05T16:39:11.692Z,55.89
2022-10-05T16:42:27.729Z,56.14
2022-10-05T16:45:06.857Z,55.51
2022-10-05T16:47:46.952Z,56.02
2022-10-05T16:50:16.729Z,55.96
2022-10-05T16:52:48.085Z,55.96
2022-10-05T16:55:26.911Z,55.13
2022-10-05T16:57:56.989Z,56.03
2022-10-05T17:00:24.998Z,55.50
2022-10-05T17:03:01.831Z,55.68
2022-10-05T17:06:00.982Z,55.92
2022-10-05T17:09:05.682Z,55.61
2022-10-05T17:12:10.070Z,55.72
2022-10-05T17:15:03.141Z,55.65
2022-10-05T17:17:49.023Z,55.76
2022-10-05T17:20:18.909Z,55.14
2022-10-05T17:22:50.766Z,55.37
2022-10-05T17:25:45.133Z,55.89
2022-10-05T17:28:20.038Z,55.63
2022-10-05T17:30:58.800Z,55.57
2022-10-05T17:33:33.461Z,55.32
2022-10-05T17:36:04.700Z,55.34
2022-10-05T17:38:31.650Z,55.71
2022-10-05T17:41:24.568Z,55.80
2022-10-05T17:44:10.284Z,55.66
2022-10-05T17:46:39.982Z,55.36
2022-10-05T17:50:08.177Z,55.33
2022-10-05T17:52:55.323Z,55.33
2022-10-05T17:55:34.017Z,55.57
2022-10-05T17:58:24.197Z,55.60
2022-10-05T18:00:57.177Z,55.21
2022-10-05T18:03:51.552Z,55.58
2022-10-05T18:06:21.393Z,55.47
2022-10-05T18:08:48.365Z,55.38
2022-10-05T18:11:36.746Z,55.16
2022-10-05T18:14:50.062Z,55.35
2022-10-05T18:17:42.114Z,55.49
2022-10-05T18:20:23.943Z,55.19
2022-10-05T18:22:53.658Z,55.60
2022-10-05T18:25:52.397Z,55.24
2022-10-05T18:28:24.197Z,55.05
2022-10-05T18:31:12.440Z,54.91
2022-10-05T18:33:39.341Z,55.35
2022-10-05T18:36:27.151Z,55.63
2022-10-05T18:39:23.202Z,54.77
2022-10-05T18:42:08.363Z,54.95
2022-10-05T18:44:51.994Z,54.79
2022-10-05T18:47:30.591Z,55.41
2022-10-05T18:50:12.868Z,54.82
2022-10-05T18:53:07.561Z,55.11
2022-10-05T18:56:08.476Z,55.14
2022-10-05T18:59:02.849Z,55.49
2022-10-05T19:01:56.686Z,55.42
2022-10-05T19:04:32.477Z,54.87
2022-10-05T19:07:30.238Z,55.35
2022-10-05T19:10:09.182Z,54.84
2022-10-05T19:12:53.755Z,55.35
2022-10-05T19:15:50.299Z,55.47
2022-10-05T19:18:40.081Z,54.86
2022-10-05T19:21:28.503Z,54.86
2022-10-05T19:24:05.996Z,55.19
2022-10-05T19:26:57.301Z,55.43
2022-10-05T19:29:54.423Z,54.95
2022-10-05T19:32:33.513Z,54.99
2022-10-05T19:35:22.170Z,55.55
2022-10-05T19:37:55.082Z,55.71
2022-10-05T19:40:49.741Z,55.16
2022-10-05T19:43:38.243Z,55.20
2022-10-05T19:46:25.285Z,54.86
2022-10-05T19:48:53.925Z,55.25
2022-10-05T19:51:25.376Z,55.36
2022-10-05T19:53:56.001Z,55.44
2022-10-05T19:56:30.925Z,54.93
2022-10-05T19:59:10.461Z,55.01
2022-10-05T20:01:48.092Z,55.17
2022-10-05T20:04:16.343Z,55.33
2022-10-05T20:06:43.321Z,54.80
2022-10-05T20:09:21.600Z,55.29
2022-10-05T20:11:50.930Z,54.71
2022-10-05T20:14:32.570Z,55.40
2022-10-05T20:17:36.105Z,55.28
2022-10-05T20:20:47.092Z,55.17
2022-10-05T20:23:21.012Z,54.92
2022-10-05T20:26:08.277Z,55.23
2022-10-05T20:28:35.200Z,54.96
2022-10-05T20:31:10.090Z,54.97
2022-10-05T20:33:46.781Z,54.65
2022-10-05T20:36:19.600Z,55.38
2022-10-05T20:38:55.528Z,55.19
2022-10-05T20:41:22.390Z,55.22
2022-10-05T20:43:52.264Z,55.20
2022-10-05T20:46:19.817Z,54.90
2022-10-05T20:48:46.734Z,55.10
2022-10-05T20:51:21.921Z,54.98
2022-10-05T20:53:50.649Z,54.48
2022-10-05T20:56:22.492Z,55.29
2022-10-05T20:58:50.510Z,54.79
2022-10-05T21:01:34.195Z,54.94
2022-10-05T21:04:02.888Z,55.03
2022-10-05T21:06:30.162Z,55.30
2022-10-05T21:09:03.046Z,54.66
2022-10-05T21:11:43.669Z,54.75
2022-10-05T21:14:11.751Z,54.55
2022-10-05T21:16:45.202Z,55.16
2022-10-05T21:19:14.996Z,54.77
2022-10-05T21:21:48.102Z,54.71
2022-10-05T21:24:15.670Z,54.99
2022-10-05T21:26:44.173Z,55.00
2022-10-05T21:29:29.924Z,55.05
2022-10-05T21:32:04.523Z,54.41
2022-10-05T21:34:43.065Z,55.31
2022-10-05T21:37:10.137Z,54.81
2022-10-05T21:39:40.095Z,54.82
2022-10-05T21:42:06.961Z,55.09
2022-10-05T21:44:37.590Z,55.05
2022-10-05T21:47:15.518Z,54.70
2022-10-05T21:49:42.730Z,55.16
2022-10-05T21:52:09.694Z,55.39
2022-10-05T21:54:39.606Z,55.21
2022-10-05T21:57:09.478Z,54.81
2022-10-05T21:59:36.507Z,55.33
2022-10-05T22:02:03.558Z,54.94
2022-10-05T22:04:34.716Z,54.85
2022-10-05T22:07:04.055Z,54.94
2022-10-05T22:09:33.886Z,54.78
2022-10-05T22:12:03.737Z,55.10
2022-10-05T22:14:33.615Z,55.02
2022-10-05T22:17:00.733Z,55.18
2022-10-05T22:19:27.688Z,55.10
2022-10-05T22:21:54.948Z,55.09
2022-10-05T22:24:50.599Z,55.14
2022-10-05T22:27:09.999Z,54.64
2022-10-05T22:29:37.121Z,55.21
2022-10-05T22:32:04.231Z,55.03
2022-10-05T22:34:31.374Z,55.07
2022-10-05T22:36:59.429Z,55.40
2022-10-05T22:39:26.228Z,54.71
2022-10-05T22:41:53.328Z,55.07
2022-10-05T22:44:20.636Z,54.77
2022-10-05T22:46:47.607Z,54.64
2022-10-05T22:49:14.610Z,55.14
2022-10-05T22:51:41.613Z,54.91
2022-10-05T22:54:08.584Z,54.81
2022-10-05T22:56:35.457Z,55.19
2022-10-05T22:59:02.274Z,54.85
2022-10-05T23:01:29.263Z,54.86
2022-10-05T23:03:57.258Z,55.23
2022-10-05T23:06:26.626Z,55.31
2022-10-05T23:08:54.760Z,55.23
2022-10-05T23:11:26.820Z,54.91
2022-10-05T23:13:56.772Z,55.09
2022-10-05T23:16:26.672Z,55.28
2022-10-05T23:18:54.924Z,54.91
2022-10-05T23:21:23.914Z,55.19
2022-10-05T23:23:51.324Z,55.21
2022-10-05T23:26:21.239Z,55.46
2022-10-05T23:28:49.020Z,55.15
2022-10-05T23:31:19.165Z,55.45
2022-10-05T23:33:46.716Z,55.20
2022-10-05T23:36:16.801Z,55.03
2022-10-05T23:38:44.101Z,55.04
2022-10-05T23:41:13.156Z,55.50
2022-10-05T23:43:40.195Z,55.15
2022-10-05T23:46:08.473Z,55.12
2022-10-05T23:48:38.063Z,55.03
2022-10-05T23:51:13.103Z,55.48
2022-10-05T23:53:40.139Z,55.33
2022-10-05T23:56:07.421Z,55.42
2022-10-05T23:58:34.241Z,55.30
